sensor_id;sensor_type;location;lat;lon;timestamp;pressure;altitude;pressure_sealevel;temperature
70819;BMP280;58439;51.046;13.692;2023-05-20T00:02:21;100805.69;;;13.26
70819;BMP280;58439;51.046;13.692;2023-05-20T00:04:48;100802.81;;;13.21
70819;BMP280;58439;51.046;13.692;2023-05-20T00:07:16;100805.19;;;13.16
70819;BMP280;58439;51.046;13.692;2023-05-20T00:09:44;100804.56;;;13.14
70819;BMP280;58439;51.046;13.692;2023-05-20T00:12:11;100806.19;;;13.15
70819;BMP280;58439;51.046;13.692;2023-05-20T00:14:38;100806.19;;;13.15
70819;BMP280;58439;51.046;13.692;2023-05-20T00:17:05;100796.69;;;13.14
70819;BMP280;58439;51.046;13.692;2023-05-20T00:19:32;100799.13;;;13.16
70819;BMP280;58439;51.046;13.692;2023-05-20T00:22:00;100799.56;;;13.19
70819;BMP280;58439;51.046;13.692;2023-05-20T00:24:27;100794.69;;;13.16
70819;BMP280;58439;51.046;13.692;2023-05-20T00:26:54;100793.28;;;13.14
70819;BMP280;58439;51.046;13.692;2023-05-20T00:29:21;100785.97;;;13.09
70819;BMP280;58439;51.046;13.692;2023-05-20T00:31:48;100786.34;;;13.06
70819;BMP280;58439;51.046;13.692;2023-05-20T00:34:16;100786.72;;;13.03
70819;BMP280;58439;51.046;13.692;2023-05-20T00:36:43;100781.41;;;12.96
70819;BMP280;58439;51.046;13.692;2023-05-20T00:39:11;100777.53;;;12.92
70819;BMP280;58439;51.046;13.692;2023-05-20T00:41:38;100782.38;;;12.89
70819;BMP280;58439;51.046;13.692;2023-05-20T00:44:05;100784.38;;;12.87
70819;BMP280;58439;51.046;13.692;2023-05-20T00:46:32;100790.81;;;12.84
70819;BMP280;58439;51.046;13.692;2023-05-20T00:49:00;100784.50;;;12.79
70819;BMP280;58439;51.046;13.692;2023-05-20T00:51:27;100787.31;;;12.77
70819;BMP280;58439;51.046;13.692;2023-05-20T00:53:55;100782.63;;;12.72
70819;BMP280;58439;51.046;13.692;2023-05-20T00:56:23;100787.06;;;12.72
70819;BMP280;58439;51.046;13.692;2023-05-20T00:58:51;100788.25;;;12.69
70819;BMP280;58439;51.046;13.692;2023-05-20T01:01:18;100786.59;;;12.68
70819;BMP280;58439;51.046;13.692;2023-05-20T01:03:45;100782.94;;;12.63
70819;BMP280;58439;51.046;13.692;2023-05-20T01:06:14;100785.91;;;12.60
70819;BMP280;58439;51.046;13.692;2023-05-20T01:08:42;100788.13;;;12.56
70819;BMP280;58439;51.046;13.692;2023-05-20T01:11:28;100786.69;;;12.54
70819;BMP280;58439;51.046;13.692;2023-05-20T01:14:05;100782.63;;;12.51
70819;BMP280;58439;51.046;13.692;2023-05-20T01:16:34;100794.50;;;12.47
70819;BMP280;58439;51.046;13.692;2023-05-20T01:19:17;100787.53;;;12.39
70819;BMP280;58439;51.046;13.692;2023-05-20T01:21:50;100788.28;;;12.33
70819;BMP280;58439;51.046;13.692;2023-05-20T01:24:18;100789.22;;;12.26
70819;BMP280;58439;51.046;13.692;2023-05-20T01:26:45;100787.16;;;12.21
70819;BMP280;58439;51.046;13.692;2023-05-20T01:29:14;100787.34;;;12.20
70819;BMP280;58439;51.046;13.692;2023-05-20T01:31:46;100788.34;;;12.19
70819;BMP280;58439;51.046;13.692;2023-05-20T01:34:14;100784.72;;;12.20
70819;BMP280;58439;51.046;13.692;2023-05-20T01:36:44;100781.91;;;12.21
70819;BMP280;58439;51.046;13.692;2023-05-20T01:39:12;100788.22;;;12.27
70819;BMP280;58439;51.046;13.692;2023-05-20T01:41:40;100791.31;;;12.30
70819;BMP280;58439;51.046;13.692;2023-05-20T01:44:07;100793.16;;;12.36
70819;BMP280;58439;51.046;13.692;2023-05-20T01:46:36;100791.63;;;12.42
70819;BMP280;58439;51.046;13.692;2023-05-20T01:49:03;100791.88;;;12.47
70819;BMP280;58439;51.046;13.692;2023-05-20T01:51:30;100794.13;;;12.50
70819;BMP280;58439;51.046;13.692;2023-05-20T01:53:59;100790.13;;;12.54
70819;BMP280;58439;51.046;13.692;2023-05-20T01:56:26;100779.78;;;12.53
70819;BMP280;58439;51.046;13.692;2023-05-20T01:58:54;100780.81;;;12.52
70819;BMP280;58439;51.046;13.692;2023-05-20T02:01:21;100777.59;;;12.50
70819;BMP280;58439;51.046;13.692;2023-05-20T02:03:48;100774.69;;;12.44
70819;BMP280;58439;51.046;13.692;2023-05-20T02:06:16;100778.50;;;12.42
70819;BMP280;58439;51.046;13.692;2023-05-20T02:08:43;100780.94;;;12.43
70819;BMP280;58439;51.046;13.692;2023-05-20T02:11:10;100776.13;;;12.47
70819;BMP280;58439;51.046;13.692;2023-05-20T02:13:38;100778.81;;;12.54
70819;BMP280;58439;51.046;13.692;2023-05-20T02:16:05;100781.91;;;12.57
70819;BMP280;58439;51.046;13.692;2023-05-20T02:18:32;100781.13;;;12.63
70819;BMP280;58439;51.046;13.692;2023-05-20T02:21:02;100779.16;;;12.65
70819;BMP280;58439;51.046;13.692;2023-05-20T02:23:33;100787.03;;;12.65
70819;BMP280;58439;51.046;13.692;2023-05-20T02:26:00;100776.53;;;12.65
70819;BMP280;58439;51.046;13.692;2023-05-20T02:28:28;100783.41;;;12.66
70819;BMP280;58439;51.046;13.692;2023-05-20T02:30:55;100778.16;;;12.66
70819;BMP280;58439;51.046;13.692;2023-05-20T02:33:22;100779.75;;;12.67
70819;BMP280;58439;51.046;13.692;2023-05-20T02:35:49;100776.69;;;12.64
70819;BMP280;58439;51.046;13.692;2023-05-20T02:38:17;100782.13;;;12.62
70819;BMP280;58439;51.046;13.692;2023-05-20T02:40:44;100778.69;;;12.62
70819;BMP280;58439;51.046;13.692;2023-05-20T02:43:11;100772.00;;;12.59
70819;BMP280;58439;51.046;13.692;2023-05-20T02:45:39;100773.03;;;12.58
70819;BMP280;58439;51.046;13.692;2023-05-20T02:48:07;100769.50;;;12.51
70819;BMP280;58439;51.046;13.692;2023-05-20T02:50:40;100767.91;;;12.50
70819;BMP280;58439;51.046;13.692;2023-05-20T02:53:07;100761.19;;;12.48
70819;BMP280;58439;51.046;13.692;2023-05-20T02:55:35;100762.19;;;12.47
70819;BMP280;58439;51.046;13.692;2023-05-20T02:58:02;100754.09;;;12.41
70819;BMP280;58439;51.046;13.692;2023-05-20T03:00:32;100746.13;;;12.35
70819;BMP280;58439;51.046;13.692;2023-05-20T03:03:08;100747.28;;;12.32
70819;BMP280;58439;51.046;13.692;2023-05-20T03:05:36;100732.78;;;12.30
70819;BMP280;58439;51.046;13.692;2023-05-20T03:08:08;100729.91;;;12.25
70819;BMP280;58439;51.046;13.692;2023-05-20T03:10:39;100737.16;;;12.23
70819;BMP280;58439;51.046;13.692;2023-05-20T03:13:07;100750.50;;;12.28
70819;BMP280;58439;51.046;13.692;2023-05-20T03:15:37;100747.13;;;12.34
70819;BMP280;58439;51.046;13.692;2023-05-20T03:18:06;100744.31;;;12.35
70819;BMP280;58439;51.046;13.692;2023-05-20T03:20:36;100749.38;;;12.37
70819;BMP280;58439;51.046;13.692;2023-05-20T03:23:06;100742.31;;;12.37
70819;BMP280;58439;51.046;13.692;2023-05-20T03:25:36;100742.31;;;12.37
70819;BMP280;58439;51.046;13.692;2023-05-20T03:28:04;100744.31;;;12.35
70819;BMP280;58439;51.046;13.692;2023-05-20T03:30:34;100756.63;;;12.35
70819;BMP280;58439;51.046;13.692;2023-05-20T03:33:02;100749.13;;;12.32
70819;BMP280;58439;51.046;13.692;2023-05-20T03:35:29;100755.38;;;12.31
70819;BMP280;58439;51.046;13.692;2023-05-20T03:37:57;100755.16;;;12.32
70819;BMP280;58439;51.046;13.692;2023-05-20T03:40:26;100753.19;;;12.34
70819;BMP280;58439;51.046;13.692;2023-05-20T03:42:54;100753.66;;;12.38
70819;BMP280;58439;51.046;13.692;2023-05-20T03:45:22;100761.13;;;12.41
70819;BMP280;58439;51.046;13.692;2023-05-20T03:47:57;100757.31;;;12.43
70819;BMP280;58439;51.046;13.692;2023-05-20T03:50:24;100758.31;;;12.42
70819;BMP280;58439;51.046;13.692;2023-05-20T03:52:51;100763.13;;;12.39
70819;BMP280;58439;51.046;13.692;2023-05-20T03:55:21;100761.69;;;12.36
70819;BMP280;58439;51.046;13.692;2023-05-20T03:57:48;100766.78;;;12.38
70819;BMP280;58439;51.046;13.692;2023-05-20T04:00:16;100756.88;;;12.40
70819;BMP280;58439;51.046;13.692;2023-05-20T04:02:44;100762.56;;;12.43
70819;BMP280;58439;51.046;13.692;2023-05-20T04:05:15;100764.81;;;12.47
70819;BMP280;58439;51.046;13.692;2023-05-20T04:07:43;100765.28;;;12.50
70819;BMP280;58439;51.046;13.692;2023-05-20T04:10:12;100763.88;;;12.54
70819;BMP280;58439;51.046;13.692;2023-05-20T04:12:39;100754.00;;;12.56
70819;BMP280;58439;51.046;13.692;2023-05-20T04:15:08;100758.09;;;12.59
70819;BMP280;58439;51.046;13.692;2023-05-20T04:17:47;100757.69;;;12.62
70819;BMP280;58439;51.046;13.692;2023-05-20T04:20:17;100757.50;;;12.63
70819;BMP280;58439;51.046;13.692;2023-05-20T04:22:44;100752.69;;;12.67
70819;BMP280;58439;51.046;13.692;2023-05-20T04:25:12;100760.19;;;12.70
70819;BMP280;58439;51.046;13.692;2023-05-20T04:27:39;100761.22;;;12.76
70819;BMP280;58439;51.046;13.692;2023-05-20T04:30:07;100763.50;;;12.79
70819;BMP280;58439;51.046;13.692;2023-05-20T04:32:39;100762.91;;;12.83
70819;BMP280;58439;51.046;13.692;2023-05-20T04:35:08;100763.38;;;12.87
70819;BMP280;58439;51.046;13.692;2023-05-20T04:37:40;100764.97;;;12.88
70819;BMP280;58439;51.046;13.692;2023-05-20T04:40:14;100771.66;;;12.90
70819;BMP280;58439;51.046;13.692;2023-05-20T04:42:41;100772.53;;;12.97
70819;BMP280;58439;51.046;13.692;2023-05-20T04:45:11;100774.38;;;13.03
70819;BMP280;58439;51.046;13.692;2023-05-20T04:47:40;100769.31;;;13.02
70819;BMP280;58439;51.046;13.692;2023-05-20T04:50:09;100766.75;;;13.09
70819;BMP280;58439;51.046;13.692;2023-05-20T04:52:40;100774.88;;;13.14
70819;BMP280;58439;51.046;13.692;2023-05-20T04:55:11;100767.84;;;13.21
70819;BMP280;58439;51.046;13.692;2023-05-20T04:57:39;100760.97;;;13.20
70819;BMP280;58439;51.046;13.692;2023-05-20T05:00:12;100762.41;;;13.22
70819;BMP280;58439;51.046;13.692;2023-05-20T05:02:40;100763.66;;;13.26
70819;BMP280;58439;51.046;13.692;2023-05-20T05:05:07;100757.63;;;13.33
70819;BMP280;58439;51.046;13.692;2023-05-20T05:07:35;100759.22;;;13.34
70819;BMP280;58439;51.046;13.692;2023-05-20T05:10:02;100755.59;;;13.35
70819;BMP280;58439;51.046;13.692;2023-05-20T05:12:32;100759.06;;;13.42
70819;BMP280;58439;51.046;13.692;2023-05-20T05:15:00;100755.66;;;13.48
70819;BMP280;58439;51.046;13.692;2023-05-20T05:17:30;100750.06;;;13.57
70819;BMP280;58439;51.046;13.692;2023-05-20T05:19:57;100755.56;;;13.69
70819;BMP280;58439;51.046;13.692;2023-05-20T05:22:26;100749.72;;;13.74
70819;BMP280;58439;51.046;13.692;2023-05-20T05:24:54;100752.75;;;13.71
70819;BMP280;58439;51.046;13.692;2023-05-20T05:27:24;100752.75;;;13.71
70819;BMP280;58439;51.046;13.692;2023-05-20T05:29:51;100756.75;;;13.67
70819;BMP280;58439;51.046;13.692;2023-05-20T05:32:21;100763.41;;;13.63
70819;BMP280;58439;51.046;13.692;2023-05-20T05:34:48;100758.75;;;13.58
70819;BMP280;58439;51.046;13.692;2023-05-20T05:37:16;100760.38;;;13.59
70819;BMP280;58439;51.046;13.692;2023-05-20T05:39:44;100758.53;;;13.59
70819;BMP280;58439;51.046;13.692;2023-05-20T05:42:12;100759.94;;;13.55
70819;BMP280;58439;51.046;13.692;2023-05-20T05:44:40;100765.03;;;13.57
70819;BMP280;58439;51.046;13.692;2023-05-20T05:47:08;100763.00;;;13.59
70819;BMP280;58439;51.046;13.692;2023-05-20T05:49:35;100768.72;;;13.69
70819;BMP280;58439;51.046;13.692;2023-05-20T05:52:04;100754.78;;;13.75
70819;BMP280;58439;51.046;13.692;2023-05-20T05:54:31;100757.84;;;13.85
70819;BMP280;58439;51.046;13.692;2023-05-20T05:56:58;100750.59;;;13.94
70819;BMP280;58439;51.046;13.692;2023-05-20T05:59:28;100749.44;;;14.03
70819;BMP280;58439;51.046;13.692;2023-05-20T06:01:55;100750.66;;;14.14
70819;BMP280;58439;51.046;13.692;2023-05-20T06:04:23;100747.00;;;14.15
70819;BMP280;58439;51.046;13.692;2023-05-20T06:06:52;100753.06;;;14.22
70819;BMP280;58439;51.046;13.692;2023-05-20T06:09:19;100739.72;;;14.30
70819;BMP280;58439;51.046;13.692;2023-05-20T06:11:46;100741.56;;;14.36
70819;BMP280;58439;51.046;13.692;2023-05-20T06:14:13;100741.38;;;14.44
70819;BMP280;58439;51.046;13.692;2023-05-20T06:16:41;100744.63;;;14.60
70819;BMP280;58439;51.046;13.692;2023-05-20T06:19:08;100747.47;;;14.71
70819;BMP280;58439;51.046;13.692;2023-05-20T06:21:35;100751.72;;;14.79
70819;BMP280;58439;51.046;13.692;2023-05-20T06:24:04;100748.25;;;14.85
70819;BMP280;58439;51.046;13.692;2023-05-20T06:26:34;100745.38;;;15.00
70819;BMP280;58439;51.046;13.692;2023-05-20T06:29:02;100740.13;;;15.00
70819;BMP280;58439;51.046;13.692;2023-05-20T06:31:29;100737.31;;;14.95
70819;BMP280;58439;51.046;13.692;2023-05-20T06:33:57;100740.13;;;15.00
70819;BMP280;58439;51.046;13.692;2023-05-20T06:36:26;100734.03;;;14.99
70819;BMP280;58439;51.046;13.692;2023-05-20T06:38:53;100739.91;;;15.01
70819;BMP280;58439;51.046;13.692;2023-05-20T06:41:20;100734.81;;;15.13
70819;BMP280;58439;51.046;13.692;2023-05-20T06:43:56;100736.44;;;15.21
70819;BMP280;58439;51.046;13.692;2023-05-20T06:46:52;100742.09;;;15.31
70819;BMP280;58439;51.046;13.692;2023-05-20T06:49:19;100736.16;;;15.42
70819;BMP280;58439;51.046;13.692;2023-05-20T06:51:47;100735.69;;;15.58
70819;BMP280;58439;51.046;13.692;2023-05-20T06:54:15;100726.22;;;15.44
70819;BMP280;58439;51.046;13.692;2023-05-20T06:56:43;100723.31;;;15.52
70819;BMP280;58439;51.046;13.692;2023-05-20T06:59:10;100720.03;;;15.57
70819;BMP280;58439;51.046;13.692;2023-05-20T07:01:40;100719.31;;;15.50
70819;BMP280;58439;51.046;13.692;2023-05-20T07:04:07;100712.53;;;15.60
70819;BMP280;58439;51.046;13.692;2023-05-20T07:06:34;100715.81;;;15.94
70819;BMP280;58439;51.046;13.692;2023-05-20T07:09:02;100719.25;;;15.94
70819;BMP280;58439;51.046;13.692;2023-05-20T07:11:29;100705.13;;;16.07
70819;BMP280;58439;51.046;13.692;2023-05-20T07:13:56;100707.22;;;16.05
70819;BMP280;58439;51.046;13.692;2023-05-20T07:16:24;100705.34;;;16.06
70819;BMP280;58439;51.046;13.692;2023-05-20T07:18:54;100710.66;;;16.31
70819;BMP280;58439;51.046;13.692;2023-05-20T07:21:21;100700.13;;;16.49
70819;BMP280;58439;51.046;13.692;2023-05-20T07:24:10;100709.53;;;16.63
70819;BMP280;58439;51.046;13.692;2023-05-20T07:27:36;100703.47;;;16.63
70819;BMP280;58439;51.046;13.692;2023-05-20T07:30:52;100698.94;;;16.88
70819;BMP280;58439;51.046;13.692;2023-05-20T07:33:46;100695.53;;;17.17
70819;BMP280;58439;51.046;13.692;2023-05-20T07:37:07;100694.19;;;17.57
70819;BMP280;58439;51.046;13.692;2023-05-20T07:45:43;100697.66;;;17.99
70819;BMP280;58439;51.046;13.692;2023-05-20T07:49:16;100697.75;;;18.04
70819;BMP280;58439;51.046;13.692;2023-05-20T07:53:06;100688.09;;;18.10
70819;BMP280;58439;51.046;13.692;2023-05-20T08:05:37;100684.44;;;19.43
70819;BMP280;58439;51.046;13.692;2023-05-20T08:09:03;100680.50;;;19.62
70819;BMP280;58439;51.046;13.692;2023-05-20T08:12:55;100683.09;;;20.07
70819;BMP280;58439;51.046;13.692;2023-05-20T08:23:07;100655.91;;;19.83
70819;BMP280;58439;51.046;13.692;2023-05-20T08:31:25;100660.19;;;19.68
70819;BMP280;58439;51.046;13.692;2023-05-20T08:35:31;100655.53;;;20.13
70819;BMP280;58439;51.046;13.692;2023-05-20T09:02:37;100641.56;;;21.20
70819;BMP280;58439;51.046;13.692;2023-05-20T09:05:09;100633.84;;;21.51
70819;BMP280;58439;51.046;13.692;2023-05-20T09:07:37;100632.44;;;21.80
70819;BMP280;58439;51.046;13.692;2023-05-20T09:10:05;100629.72;;;21.70
70819;BMP280;58439;51.046;13.692;2023-05-20T09:12:32;100631.25;;;21.61
70819;BMP280;58439;51.046;13.692;2023-05-20T09:14:59;100633.84;;;21.51
70819;BMP280;58439;51.046;13.692;2023-05-20T09:17:26;100629.38;;;21.25
70819;BMP280;58439;51.046;13.692;2023-05-20T09:19:54;100629.31;;;21.14
70819;BMP280;58439;51.046;13.692;2023-05-20T09:22:26;100622.25;;;21.03
70819;BMP280;58439;51.046;13.692;2023-05-20T09:24:54;100632.94;;;21.08
70819;BMP280;58439;51.046;13.692;2023-05-20T09:27:22;100624.75;;;21.15
70819;BMP280;58439;51.046;13.692;2023-05-20T09:29:50;100618.00;;;21.02
70819;BMP280;58439;51.046;13.692;2023-05-20T09:32:20;100622.84;;;21.05
70819;BMP280;58439;51.046;13.692;2023-05-20T09:34:50;100624.16;;;21.08
70819;BMP280;58439;51.046;13.692;2023-05-20T09:37:20;100624.03;;;21.25
70819;BMP280;58439;51.046;13.692;2023-05-20T09:40:00;100615.22;;;21.51
70819;BMP280;58439;51.046;13.692;2023-05-20T09:42:41;100620.25;;;21.90
70819;BMP280;58439;51.046;13.692;2023-05-20T09:45:09;100611.81;;;22.13
70819;BMP280;58439;51.046;13.692;2023-05-20T09:47:40;100609.16;;;22.23
70819;BMP280;58439;51.046;13.692;2023-05-20T09:50:08;100609.97;;;22.13
70819;BMP280;58439;51.046;13.692;2023-05-20T09:52:37;100598.94;;;21.90
70819;BMP280;58439;51.046;13.692;2023-05-20T09:55:11;100594.66;;;21.89
70819;BMP280;58439;51.046;13.692;2023-05-20T09:58:03;100591.44;;;21.81
70819;BMP280;58439;51.046;13.692;2023-05-20T10:00:30;100583.72;;;21.85
70819;BMP280;58439;51.046;13.692;2023-05-20T10:02:58;100589.75;;;21.70
70819;BMP280;58439;51.046;13.692;2023-05-20T10:05:34;100579.66;;;21.72
70819;BMP280;58439;51.046;13.692;2023-05-20T10:08:30;100578.81;;;21.72
70819;BMP280;58439;51.046;13.692;2023-05-20T10:14:14;100575.75;;;21.90
70819;BMP280;58439;51.046;13.692;2023-05-20T10:17:19;100562.53;;;21.58
70819;BMP280;58439;51.046;13.692;2023-05-20T10:30:20;100562.63;;;21.78
70819;BMP280;58439;51.046;13.692;2023-05-20T10:38:12;100557.44;;;22.14
70819;BMP280;58439;51.046;13.692;2023-05-20T10:40:41;100555.91;;;22.28
70819;BMP280;58439;51.046;13.692;2023-05-20T10:44:00;100559.59;;;22.27
70819;BMP280;58439;51.046;13.692;2023-05-20T10:46:33;100554.84;;;22.29
70819;BMP280;58439;51.046;13.692;2023-05-20T10:49:20;100551.34;;;22.24
70819;BMP280;58439;51.046;13.692;2023-05-20T10:51:53;100541.00;;;22.52
70819;BMP280;58439;51.046;13.692;2023-05-20T10:54:25;100547.66;;;22.65
70819;BMP280;58439;51.046;13.692;2023-05-20T10:56:53;100534.88;;;22.77
70819;BMP280;58439;51.046;13.692;2023-05-20T10:59:21;100540.53;;;23.76
70819;BMP280;58439;51.046;13.692;2023-05-20T11:01:49;100533.19;;;25.51
70819;BMP280;58439;51.046;13.692;2023-05-20T11:04:18;100532.25;;;26.50
70819;BMP280;58439;51.046;13.692;2023-05-20T11:06:52;100536.47;;;27.52
70819;BMP280;58439;51.046;13.692;2023-05-20T11:09:22;100532.22;;;27.73
70819;BMP280;58439;51.046;13.692;2023-05-20T11:11:54;100528.44;;;27.24
70819;BMP280;58439;51.046;13.692;2023-05-20T11:14:22;100530.09;;;27.34
70819;BMP280;58439;51.046;13.692;2023-05-20T11:16:51;100524.34;;;27.77
70819;BMP280;58439;51.046;13.692;2023-05-20T11:19:44;100534.56;;;27.88
70819;BMP280;58439;51.046;13.692;2023-05-20T11:22:12;100527.34;;;27.97
70819;BMP280;58439;51.046;13.692;2023-05-20T11:24:40;100525.34;;;28.03
70819;BMP280;58439;51.046;13.692;2023-05-20T11:27:07;100524.66;;;27.75
70819;BMP280;58439;51.046;13.692;2023-05-20T11:29:36;100524.25;;;27.68
70819;BMP280;58439;51.046;13.692;2023-05-20T11:32:06;100523.75;;;28.02
70819;BMP280;58439;51.046;13.692;2023-05-20T11:34:36;100523.41;;;27.95
70819;BMP280;58439;51.046;13.692;2023-05-20T11:37:09;100515.94;;;28.14
70819;BMP280;58439;51.046;13.692;2023-05-20T11:40:05;100517.16;;;28.39
70819;BMP280;58439;51.046;13.692;2023-05-20T11:42:56;100505.09;;;28.67
70819;BMP280;58439;51.046;13.692;2023-05-20T11:45:25;100500.97;;;29.18
70819;BMP280;58439;51.046;13.692;2023-05-20T11:48:17;100508.59;;;29.51
70819;BMP280;58439;51.046;13.692;2023-05-20T11:50:53;100502.25;;;29.81
70819;BMP280;58439;51.046;13.692;2023-05-20T11:53:49;100484.09;;;29.90
70819;BMP280;58439;51.046;13.692;2023-05-20T11:56:23;100495.72;;;29.73
70819;BMP280;58439;51.046;13.692;2023-05-20T11:58:53;100495.41;;;29.75
70819;BMP280;58439;51.046;13.692;2023-05-20T12:01:25;100491.50;;;30.19
70819;BMP280;58439;51.046;13.692;2023-05-20T12:03:54;100485.03;;;30.49
70819;BMP280;58439;51.046;13.692;2023-05-20T12:06:22;100490.75;;;30.48
70819;BMP280;58439;51.046;13.692;2023-05-20T12:08:52;100483.31;;;30.07
70819;BMP280;58439;51.046;13.692;2023-05-20T12:11:19;100491.56;;;28.42
70819;BMP280;58439;51.046;13.692;2023-05-20T12:13:48;100480.59;;;28.38
70819;BMP280;58439;51.046;13.692;2023-05-20T12:16:36;100467.94;;;29.73
70819;BMP280;58439;51.046;13.692;2023-05-20T12:22:59;100460.28;;;30.47
70819;BMP280;58439;51.046;13.692;2023-05-20T12:26:57;100449.34;;;29.97
70819;BMP280;58439;51.046;13.692;2023-05-20T12:30:18;100445.72;;;30.61
70819;BMP280;58439;51.046;13.692;2023-05-20T12:33:53;100443.59;;;31.49
70819;BMP280;58439;51.046;13.692;2023-05-20T12:37:51;100427.66;;;31.93
70819;BMP280;58439;51.046;13.692;2023-05-20T12:40:42;100427.19;;;32.03
70819;BMP280;58439;51.046;13.692;2023-05-20T12:43:10;100432.31;;;32.05
70819;BMP280;58439;51.046;13.692;2023-05-20T12:45:38;100421.53;;;31.72
70819;BMP280;58439;51.046;13.692;2023-05-20T12:48:05;100421.41;;;31.56
70819;BMP280;58439;51.046;13.692;2023-05-20T12:50:36;100417.59;;;31.81
70819;BMP280;58439;51.046;13.692;2023-05-20T12:53:03;100416.81;;;31.03
70819;BMP280;58439;51.046;13.692;2023-05-20T12:55:39;100410.78;;;29.88
70819;BMP280;58439;51.046;13.692;2023-05-20T12:58:08;100413.38;;;28.73
70819;BMP280;58439;51.046;13.692;2023-05-20T13:00:35;100416.53;;;28.57
70819;BMP280;58439;51.046;13.692;2023-05-20T13:03:06;100413.41;;;30.05
70819;BMP280;58439;51.046;13.692;2023-05-20T13:05:33;100406.53;;;31.17
70819;BMP280;58439;51.046;13.692;2023-05-20T13:08:01;100413.38;;;29.76
70819;BMP280;58439;51.046;13.692;2023-05-20T13:10:29;100408.22;;;29.02
70819;BMP280;58439;51.046;13.692;2023-05-20T13:12:58;100408.59;;;29.73
70819;BMP280;58439;51.046;13.692;2023-05-20T13:15:25;100400.44;;;30.58
70819;BMP280;58439;51.046;13.692;2023-05-20T13:17:53;100402.72;;;31.30
70819;BMP280;58439;51.046;13.692;2023-05-20T13:20:20;100394.94;;;31.61
70819;BMP280;58439;51.046;13.692;2023-05-20T13:22:53;100405.94;;;30.11
70819;BMP280;58439;51.046;13.692;2023-05-20T13:25:20;100403.09;;;29.35
70819;BMP280;58439;51.046;13.692;2023-05-20T13:27:48;100406.53;;;30.17
70819;BMP280;58439;51.046;13.692;2023-05-20T13:30:21;100401.63;;;31.10
70819;BMP280;58439;51.046;13.692;2023-05-20T13:34:05;100398.41;;;30.55
70819;BMP280;58439;51.046;13.692;2023-05-20T13:36:33;100390.16;;;29.92
70819;BMP280;58439;51.046;13.692;2023-05-20T13:39:00;100395.50;;;29.02
70819;BMP280;58439;51.046;13.692;2023-05-20T13:41:28;100389.91;;;28.08
70819;BMP280;58439;51.046;13.692;2023-05-20T13:45:20;100382.22;;;27.39
70819;BMP280;58439;51.046;13.692;2023-05-20T13:48:34;100369.00;;;26.93
70819;BMP280;58439;51.046;13.692;2023-05-20T13:51:02;100359.50;;;26.46
70819;BMP280;58439;51.046;13.692;2023-05-20T13:53:34;100367.31;;;26.15
70819;BMP280;58439;51.046;13.692;2023-05-20T13:56:02;100370.94;;;25.92
70819;BMP280;58439;51.046;13.692;2023-05-20T13:58:29;100367.78;;;26.03
70819;BMP280;58439;51.046;13.692;2023-05-20T14:01:19;100357.06;;;26.03
70819;BMP280;58439;51.046;13.692;2023-05-20T14:03:53;100369.13;;;26.33
70819;BMP280;58439;51.046;13.692;2023-05-20T14:06:21;100354.44;;;25.84
70819;BMP280;58439;51.046;13.692;2023-05-20T14:08:48;100363.22;;;25.39
70819;BMP280;58439;51.046;13.692;2023-05-20T14:11:16;100346.63;;;24.99
70819;BMP280;58439;51.046;13.692;2023-05-20T14:13:46;100343.75;;;24.48
70819;BMP280;58439;51.046;13.692;2023-05-20T14:16:14;100348.50;;;24.27
70819;BMP280;58439;51.046;13.692;2023-05-20T14:18:42;100353.47;;;24.10
70819;BMP280;58439;51.046;13.692;2023-05-20T14:21:10;100353.31;;;24.01
70819;BMP280;58439;51.046;13.692;2023-05-20T14:23:39;100347.16;;;24.01
70819;BMP280;58439;51.046;13.692;2023-05-20T14:26:11;100343.22;;;23.93
70819;BMP280;58439;51.046;13.692;2023-05-20T14:28:39;100327.72;;;23.90
70819;BMP280;58439;51.046;13.692;2023-05-20T14:31:06;100331.94;;;23.96
70819;BMP280;58439;51.046;13.692;2023-05-20T14:33:35;100329.31;;;23.91
70819;BMP280;58439;51.046;13.692;2023-05-20T14:36:07;100316.69;;;24.02
70819;BMP280;58439;51.046;13.692;2023-05-20T14:38:34;100332.16;;;24.05
70819;BMP280;58439;51.046;13.692;2023-05-20T14:41:02;100328.88;;;24.08
70819;BMP280;58439;51.046;13.692;2023-05-20T14:43:30;100327.84;;;24.04
70819;BMP280;58439;51.046;13.692;2023-05-20T14:46:02;100334.66;;;23.91
70819;BMP280;58439;51.046;13.692;2023-05-20T14:48:30;100330.19;;;23.81
70819;BMP280;58439;51.046;13.692;2023-05-20T14:50:57;100331.31;;;23.75
70819;BMP280;58439;51.046;13.692;2023-05-20T14:53:25;100326.22;;;23.79
70819;BMP280;58439;51.046;13.692;2023-05-20T14:55:52;100328.56;;;23.86
70819;BMP280;58439;51.046;13.692;2023-05-20T14:58:20;100328.53;;;23.91
70819;BMP280;58439;51.046;13.692;2023-05-20T15:00:47;100315.44;;;23.89
70819;BMP280;58439;51.046;13.692;2023-05-20T15:03:15;100325.31;;;23.89
70819;BMP280;58439;51.046;13.692;2023-05-20T15:05:42;100333.06;;;23.90
70819;BMP280;58439;51.046;13.692;2023-05-20T15:08:10;100333.44;;;23.78
70819;BMP280;58439;51.046;13.692;2023-05-20T15:10:38;100321.78;;;23.69
70819;BMP280;58439;51.046;13.692;2023-05-20T15:13:05;100318.59;;;23.62
70819;BMP280;58439;51.046;13.692;2023-05-20T15:15:33;100306.09;;;23.52
70819;BMP280;58439;51.046;13.692;2023-05-20T15:18:00;100305.38;;;23.42
70819;BMP280;58439;51.046;13.692;2023-05-20T15:20:28;100299.47;;;23.45
70819;BMP280;58439;51.046;13.692;2023-05-20T15:22:57;100299.78;;;23.43
70819;BMP280;58439;51.046;13.692;2023-05-20T15:25:26;100291.41;;;23.55
70819;BMP280;58439;51.046;13.692;2023-05-20T15:27:54;100290.56;;;23.60
70819;BMP280;58439;51.046;13.692;2023-05-20T15:30:26;100297.66;;;23.74
70819;BMP280;58439;51.046;13.692;2023-05-20T15:32:54;100290.63;;;23.83
70819;BMP280;58439;51.046;13.692;2023-05-20T15:35:21;100285.59;;;23.77